sensor_id;sensor_type;location;lat;lon;timestamp;pressure;altitude;pressure_sealevel;temperature;humidity
37206;BME280;23099;42.636;23.198;2023-02-12T00:01:55;92894.19;;;-2.87;55.26
37206;BME280;23099;42.636;23.198;2023-02-12T00:04:22;92898.94;;;-2.89;57.84
37206;BME280;23099;42.636;23.198;2023-02-12T00:06:48;92904.66;;;-2.87;56.44
37206;BME280;23099;42.636;23.198;2023-02-12T00:09:15;92886.16;;;-2.75;52.65
37206;BME280;23099;42.636;23.198;2023-02-12T00:11:41;92891.19;;;-2.54;51.68
37206;BME280;23099;42.636;23.198;2023-02-12T00:14:08;92891.44;;;-2.60;55.16
37206;BME280;23099;42.636;23.198;2023-02-12T00:16:34;92895.88;;;-2.61;55.91
37206;BME280;23099;42.636;23.198;2023-02-12T00:19:02;92884.13;;;-2.53;54.38
37206;BME280;23099;42.636;23.198;2023-02-12T00:21:28;92886.75;;;-2.48;54.71
37206;BME280;23099;42.636;23.198;2023-02-12T00:23:55;92884.94;;;-2.47;51.48
37206;BME280;23099;42.636;23.198;2023-02-12T00:26:22;92884.94;;;-2.37;51.99
37206;BME280;23099;42.636;23.198;2023-02-12T00:28:48;92886.00;;;-2.33;50.45
37206;BME280;23099;42.636;23.198;2023-02-12T00:31:16;92890.72;;;-2.25;52.45
37206;BME280;23099;42.636;23.198;2023-02-12T00:33:43;92883.91;;;-2.21;53.02
37206;BME280;23099;42.636;23.198;2023-02-12T00:36:12;92876.31;;;-2.13;54.32
37206;BME280;23099;42.636;23.198;2023-02-12T00:38:39;92872.38;;;-2.15;52.26
37206;BME280;23099;42.636;23.198;2023-02-12T00:41:05;92875.00;;;-2.15;52.57
37206;BME280;23099;42.636;23.198;2023-02-12T00:43:32;92874.75;;;-2.34;50.38
37206;BME280;23099;42.636;23.198;2023-02-12T00:45:58;92858.50;;;-2.36;51.29
37206;BME280;23099;42.636;23.198;2023-02-12T00:48:25;92855.63;;;-2.24;49.68
37206;BME280;23099;42.636;23.198;2023-02-12T00:50:51;92854.81;;;-2.30;52.65
37206;BME280;23099;42.636;23.198;2023-02-12T00:53:19;92857.47;;;-2.35;54.06
37206;BME280;23099;42.636;23.198;2023-02-12T00:55:46;92850.63;;;-2.31;51.80
37206;BME280;23099;42.636;23.198;2023-02-12T00:58:12;92851.16;;;-2.29;52.57
37206;BME280;23099;42.636;23.198;2023-02-12T01:00:40;92847.50;;;-2.33;53.26
37206;BME280;23099;42.636;23.198;2023-02-12T01:03:07;92847.25;;;-2.31;52.09
37206;BME280;23099;42.636;23.198;2023-02-12T01:05:34;92846.22;;;-2.20;53.54
37206;BME280;23099;42.636;23.198;2023-02-12T01:08:01;92845.69;;;-2.12;52.24
37206;BME280;23099;42.636;23.198;2023-02-12T01:10:29;92840.97;;;-2.15;53.16
37206;BME280;23099;42.636;23.198;2023-02-12T01:12:55;92834.44;;;-2.23;53.36
37206;BME280;23099;42.636;23.198;2023-02-12T01:15:22;92836.78;;;-2.11;53.98
37206;BME280;23099;42.636;23.198;2023-02-12T01:17:50;92834.44;;;-2.07;56.40
37206;BME280;23099;42.636;23.198;2023-02-12T01:20:17;92842.81;;;-2.05;55.00
37206;BME280;23099;42.636;23.198;2023-02-12T01:22:44;92841.75;;;-1.99;55.89
37206;BME280;23099;42.636;23.198;2023-02-12T01:25:10;92837.84;;;-2.07;55.49
37206;BME280;23099;42.636;23.198;2023-02-12T01:27:39;92840.44;;;-1.97;56.93
37206;BME280;23099;42.636;23.198;2023-02-12T01:30:07;92845.16;;;-1.99;55.64
37206;BME280;23099;42.636;23.198;2023-02-12T01:32:34;92836.00;;;-1.91;54.71
37206;BME280;23099;42.636;23.198;2023-02-12T01:35:00;92851.72;;;-1.91;55.88
37206;BME280;23099;42.636;23.198;2023-02-12T01:37:27;92847.78;;;-1.89;56.27
37206;BME280;23099;42.636;23.198;2023-02-12T01:39:53;92852.50;;;-1.91;53.88
37206;BME280;23099;42.636;23.198;2023-02-12T01:42:20;92836.25;;;-1.93;53.26
37206;BME280;23099;42.636;23.198;2023-02-12T01:47:29;92827.06;;;-1.85;53.58
37206;BME280;23099;42.636;23.198;2023-02-12T01:49:55;92826.81;;;-1.99;56.83
37206;BME280;23099;42.636;23.198;2023-02-12T01:52:22;92818.72;;;-2.18;57.59
37206;BME280;23099;42.636;23.198;2023-02-12T01:54:50;92816.63;;;-2.26;56.57
37206;BME280;23099;42.636;23.198;2023-02-12T01:57:17;92822.91;;;-2.22;57.75
37206;BME280;23099;42.636;23.198;2023-02-12T01:59:44;92825.53;;;-2.22;56.56
37206;BME280;23099;42.636;23.198;2023-02-12T02:02:11;92818.72;;;-2.23;55.09
37206;BME280;23099;42.636;23.198;2023-02-12T02:04:40;92815.84;;;-2.21;57.50
37206;BME280;23099;42.636;23.198;2023-02-12T02:07:08;92820.78;;;-2.30;57.15
37206;BME280;23099;42.636;23.198;2023-02-12T02:09:36;92822.38;;;-2.29;55.13
37206;BME280;23099;42.636;23.198;2023-02-12T02:12:04;92818.72;;;-2.23;57.52
37206;BME280;23099;42.636;23.198;2023-02-12T02:14:48;92831.28;;;-2.20;58.97
37206;BME280;23099;42.636;23.198;2023-02-12T02:20:21;92828.66;;;-2.30;57.54
37206;BME280;23099;42.636;23.198;2023-02-12T02:22:59;92820.03;;;-2.25;57.14
37206;BME280;23099;42.636;23.198;2023-02-12T02:25:35;92817.16;;;-2.34;60.16
37206;BME280;23099;42.636;23.198;2023-02-12T02:28:09;92827.09;;;-2.26;58.60
37206;BME280;23099;42.636;23.198;2023-02-12T02:30:41;92815.84;;;-2.21;58.26
37206;BME280;23099;42.636;23.198;2023-02-12T02:33:12;92820.31;;;-2.17;59.22
37206;BME280;23099;42.636;23.198;2023-02-12T02:35:44;92808.50;;;-2.04;59.12
37206;BME280;23099;42.636;23.198;2023-02-12T02:38:17;92803.25;;;-1.99;58.37
37206;BME280;23099;42.636;23.198;2023-02-12T02:40:48;92800.91;;;-1.90;61.10
37206;BME280;23099;42.636;23.198;2023-02-12T02:43:18;92802.19;;;-1.98;59.99
37206;BME280;23099;42.636;23.198;2023-02-12T02:45:48;92799.06;;;-2.10;63.36
37206;BME280;23099;42.636;23.198;2023-02-12T02:48:17;92809.28;;;-2.08;60.24
37206;BME280;23099;42.636;23.198;2023-02-12T02:50:45;92811.91;;;-1.93;62.68
37206;BME280;23099;42.636;23.198;2023-02-12T02:53:14;92827.34;;;-1.87;62.92
37206;BME280;23099;42.636;23.198;2023-02-12T02:55:47;92807.44;;;-1.88;63.35
37206;BME280;23099;42.636;23.198;2023-02-12T02:58:16;92816.34;;;-1.89;62.27
37206;BME280;23099;42.636;23.198;2023-02-12T03:00:44;92825.50;;;-1.81;60.31
37206;BME280;23099;42.636;23.198;2023-02-12T03:03:16;92810.81;;;-1.67;60.31
37206;BME280;23099;42.636;23.198;2023-02-12T03:05:44;92820.47;;;-1.57;58.61
37206;BME280;23099;42.636;23.198;2023-02-12T03:08:13;92807.38;;;-1.47;61.35
37206;BME280;23099;42.636;23.198;2023-02-12T03:10:41;92807.88;;;-1.55;61.24
37206;BME280;23099;42.636;23.198;2023-02-12T03:13:09;92820.72;;;-1.49;61.14
37206;BME280;23099;42.636;23.198;2023-02-12T03:15:38;92817.59;;;-1.46;59.67
37206;BME280;23099;42.636;23.198;2023-02-12T03:18:06;92812.03;;;-1.44;58.61
37206;BME280;23099;42.636;23.198;2023-02-12T03:20:37;92811.53;;;-1.36;60.76
37206;BME280;23099;42.636;23.198;2023-02-12T03:23:07;92815.19;;;-1.32;60.32
37206;BME280;23099;42.636;23.198;2023-02-12T03:25:35;92814.66;;;-1.34;59.74
37206;BME280;23099;42.636;23.198;2023-02-12T03:28:05;92810.16;;;-1.18;60.16
37206;BME280;23099;42.636;23.198;2023-02-12T03:30:35;92800.41;;;-1.13;61.30
37206;BME280;23099;42.636;23.198;2023-02-12T03:33:06;92799.34;;;-1.07;61.46
37206;BME280;23099;42.636;23.198;2023-02-12T03:35:40;92800.38;;;-1.02;62.10
37206;BME280;23099;42.636;23.198;2023-02-12T03:38:12;92790.63;;;-0.97;60.91
37206;BME280;23099;42.636;23.198;2023-02-12T03:40:44;92788.84;;;-1.07;61.69
37206;BME280;23099;42.636;23.198;2023-02-12T03:43:14;92790.44;;;-1.05;62.74
37206;BME280;23099;42.636;23.198;2023-02-12T03:45:48;92790.44;;;-1.05;62.31
37206;BME280;23099;42.636;23.198;2023-02-12T03:48:18;92791.47;;;-1.01;61.47
37206;BME280;23099;42.636;23.198;2023-02-12T03:50:50;92789.09;;;-1.03;59.71
37206;BME280;23099;42.636;23.198;2023-02-12T03:53:18;92793.78;;;-1.00;58.69
37206;BME280;23099;42.636;23.198;2023-02-12T03:55:46;92781.72;;;-1.01;59.65
37206;BME280;23099;42.636;23.198;2023-02-12T03:58:15;92787.22;;;-0.92;57.75
37206;BME280;23099;42.636;23.198;2023-02-12T04:00:44;92782.94;;;-0.78;61.51
37206;BME280;23099;42.636;23.198;2023-02-12T04:03:11;92792.13;;;-0.81;58.23
37206;BME280;23099;42.636;23.198;2023-02-12T04:05:37;92778.72;;;-0.74;60.06
37206;BME280;23099;42.636;23.198;2023-02-12T04:08:05;92786.31;;;-0.73;57.61
37206;BME280;23099;42.636;23.198;2023-02-12T04:10:34;92789.72;;;-0.72;59.09
37206;BME280;23099;42.636;23.198;2023-02-12T04:13:05;92787.31;;;-0.63;58.94
37206;BME280;23099;42.636;23.198;2023-02-12T04:15:40;92779.16;;;-0.62;59.13
37206;BME280;23099;42.636;23.198;2023-02-12T04:18:10;92794.94;;;-0.67;57.29
37206;BME280;23099;42.636;23.198;2023-02-12T04:20:47;92795.22;;;-0.68;58.92
37206;BME280;23099;42.636;23.198;2023-02-12T04:23:20;92791.25;;;-0.66;57.99
37206;BME280;23099;42.636;23.198;2023-02-12T04:25:51;92805.69;;;-0.63;58.84
37206;BME280;23099;42.636;23.198;2023-02-12T04:28:21;92793.06;;;-0.61;57.72
37206;BME280;23099;42.636;23.198;2023-02-12T04:30:53;92809.09;;;-0.58;60.21
37206;BME280;23099;42.636;23.198;2023-02-12T04:33:22;92801.94;;;-0.52;60.30
37206;BME280;23099;42.636;23.198;2023-02-12T04:35:50;92802.97;;;-0.48;59.44
37206;BME280;23099;42.636;23.198;2023-02-12T04:38:22;92807.63;;;-0.40;59.57
37206;BME280;23099;42.636;23.198;2023-02-12T04:40:51;92798.69;;;-0.39;60.21
37206;BME280;23099;42.636;23.198;2023-02-12T04:43:25;92798.44;;;-0.43;61.19
37206;BME280;23099;42.636;23.198;2023-02-12T04:45:51;92810.13;;;-0.59;54.94
37206;BME280;23099;42.636;23.198;2023-02-12T04:48:18;92819.28;;;-0.56;54.81
37206;BME280;23099;42.636;23.198;2023-02-12T04:50:44;92820.28;;;-0.47;57.01
37206;BME280;23099;42.636;23.198;2023-02-12T04:53:11;92808.69;;;-0.41;61.41
37206;BME280;23099;42.636;23.198;2023-02-12T04:55:38;92805.50;;;-0.33;60.03
37206;BME280;23099;42.636;23.198;2023-02-12T04:58:05;92816.47;;;-0.26;59.82
37206;BME280;23099;42.636;23.198;2023-02-12T05:00:31;92822.75;;;-0.22;60.97
37206;BME280;23099;42.636;23.198;2023-02-12T05:02:58;92826.53;;;-0.38;55.97
37206;BME280;23099;42.636;23.198;2023-02-12T05:05:24;92831.25;;;-0.35;61.75
37206;BME280;23099;42.636;23.198;2023-02-12T05:07:51;92835.97;;;-0.37;61.72
37206;BME280;23099;42.636;23.198;2023-02-12T05:10:18;92825.78;;;-0.44;63.45
37206;BME280;23099;42.636;23.198;2023-02-12T05:12:46;92833.19;;;-0.51;62.09
37206;BME280;23099;42.636;23.198;2023-02-12T05:15:12;92832.31;;;-0.41;61.39
37206;BME280;23099;42.636;23.198;2023-02-12T05:17:39;92832.63;;;-0.48;59.58
37206;BME280;23099;42.636;23.198;2023-02-12T05:20:05;92848.59;;;-0.39;59.73
37206;BME280;23099;42.636;23.198;2023-02-12T05:22:32;92845.19;;;-0.40;61.82
37206;BME280;23099;42.636;23.198;2023-02-12T05:24:58;92840.44;;;-0.38;59.06
37206;BME280;23099;42.636;23.198;2023-02-12T05:27:25;92859.41;;;-0.46;55.84
37206;BME280;23099;42.636;23.198;2023-02-12T05:29:53;92859.94;;;-0.44;58.42
37206;BME280;23099;42.636;23.198;2023-02-12T05:32:20;92859.38;;;-0.41;59.51
37206;BME280;23099;42.636;23.198;2023-02-12T05:34:47;92856.72;;;-0.36;60.12
37206;BME280;23099;42.636;23.198;2023-02-12T05:37:13;92868.00;;;-0.30;62.71
37206;BME280;23099;42.636;23.198;2023-02-12T05:39:40;92867.75;;;-0.39;59.28
37206;BME280;23099;42.636;23.198;2023-02-12T05:42:06;92862.59;;;-0.54;61.08
37206;BME280;23099;42.636;23.198;2023-02-12T05:44:33;92869.16;;;-0.56;61.28
37206;BME280;23099;42.636;23.198;2023-02-12T05:47:00;92873.41;;;-0.60;63.08
37206;BME280;23099;42.636;23.198;2023-02-12T05:49:27;92879.25;;;-0.79;65.80
37206;BME280;23099;42.636;23.198;2023-02-12T05:51:53;92884.56;;;-0.89;66.97
37206;BME280;23099;42.636;23.198;2023-02-12T05:54:20;92893.22;;;-0.88;66.24
37206;BME280;23099;42.636;23.198;2023-02-12T05:56:46;92884.50;;;-0.84;67.19
37206;BME280;23099;42.636;23.198;2023-02-12T05:59:14;92882.19;;;-1.00;68.16
37206;BME280;23099;42.636;23.198;2023-02-12T06:01:42;92876.22;;;-1.06;71.28
37206;BME280;23099;42.636;23.198;2023-02-12T06:04:12;92875.47;;;-1.17;71.43
37206;BME280;23099;42.636;23.198;2023-02-12T06:06:39;92888.06;;;-1.24;72.83
37206;BME280;23099;42.636;23.198;2023-02-12T06:09:06;92887.25;;;-1.29;73.68
37206;BME280;23099;42.636;23.198;2023-02-12T06:11:33;92884.91;;;-1.26;72.75
37206;BME280;23099;42.636;23.198;2023-02-12T06:14:00;92889.09;;;-1.20;75.02
37206;BME280;23099;42.636;23.198;2023-02-12T06:16:27;92887.00;;;-1.18;73.94
37206;BME280;23099;42.636;23.198;2023-02-12T06:18:54;92876.47;;;-1.13;73.95
37206;BME280;23099;42.636;23.198;2023-02-12T06:21:23;92881.72;;;-1.02;74.20
37206;BME280;23099;42.636;23.198;2023-02-12T06:23:50;92883.78;;;-0.99;74.08
37206;BME280;23099;42.636;23.198;2023-02-12T06:26:16;92880.63;;;-0.91;74.24
37206;BME280;23099;42.636;23.198;2023-02-12T06:28:43;92883.19;;;-0.81;74.69
37206;BME280;23099;42.636;23.198;2023-02-12T06:31:16;92876.38;;;-0.82;74.90
37206;BME280;23099;42.636;23.198;2023-02-12T06:33:42;92874.78;;;-0.78;74.71
37206;BME280;23099;42.636;23.198;2023-02-12T06:36:09;92883.44;;;-0.78;76.17
37206;BME280;23099;42.636;23.198;2023-02-12T06:38:37;92873.47;;;-0.81;78.49
37206;BME280;23099;42.636;23.198;2023-02-12T06:41:03;92866.66;;;-0.82;78.68
37206;BME280;23099;42.636;23.198;2023-02-12T06:43:30;92866.97;;;-0.88;79.17
37206;BME280;23099;42.636;23.198;2023-02-12T06:45:59;92874.00;;;-0.84;80.18
37206;BME280;23099;42.636;23.198;2023-02-12T06:48:26;92868.50;;;-0.77;80.83
37206;BME280;23099;42.636;23.198;2023-02-12T06:50:52;92866.34;;;-0.70;80.93
37206;BME280;23099;42.636;23.198;2023-02-12T06:53:18;92865.81;;;-0.67;81.60
37206;BME280;23099;42.636;23.198;2023-02-12T06:55:46;92865.53;;;-0.60;81.42
37206;BME280;23099;42.636;23.198;2023-02-12T06:58:13;92862.06;;;-0.56;81.40
37206;BME280;23099;42.636;23.198;2023-02-12T07:00:39;92868.38;;;-0.52;80.64
37206;BME280;23099;42.636;23.198;2023-02-12T07:03:06;92869.41;;;-0.48;77.83
37206;BME280;23099;42.636;23.198;2023-02-12T07:05:32;92869.84;;;-0.36;77.92
37206;BME280;23099;42.636;23.198;2023-02-12T07:08:01;92868.72;;;-0.24;78.12
37206;BME280;23099;42.636;23.198;2023-02-12T07:10:28;92864.47;;;-0.15;78.36
37206;BME280;23099;42.636;23.198;2023-02-12T07:12:56;92869.41;;;-0.09;77.34
37206;BME280;23099;42.636;23.198;2023-02-12T07:15:22;92861.00;;;-0.06;78.53
37206;BME280;23099;42.636;23.198;2023-02-12T07:17:49;92864.94;;;-0.03;78.91
37206;BME280;23099;42.636;23.198;2023-02-12T07:20:15;92858.03;;;0.01;77.91
37206;BME280;23099;42.636;23.198;2023-02-12T07:22:41;92853.81;;;0.05;77.99
37206;BME280;23099;42.636;23.198;2023-02-12T07:25:08;92859.78;;;0.16;77.58
37206;BME280;23099;42.636;23.198;2023-02-12T07:27:35;92860.00;;;0.19;77.57
37206;BME280;23099;42.636;23.198;2023-02-12T07:30:03;92866.25;;;0.28;76.71
37206;BME280;23099;42.636;23.198;2023-02-12T07:32:30;92861.75;;;0.29;75.23
37206;BME280;23099;42.636;23.198;2023-02-12T07:34:57;92855.75;;;0.28;75.24
37206;BME280;23099;42.636;23.198;2023-02-12T07:37:23;92859.09;;;0.34;76.05
37206;BME280;23099;42.636;23.198;2023-02-12T07:39:50;92858.31;;;0.33;75.78
37206;BME280;23099;42.636;23.198;2023-02-12T07:42:17;92855.19;;;0.31;76.47
37206;BME280;23099;42.636;23.198;2023-02-12T07:44:43;92857.25;;;0.34;75.80
37206;BME280;23099;42.636;23.198;2023-02-12T07:47:11;92866.72;;;0.35;75.95
37206;BME280;23099;42.636;23.198;2023-02-12T07:49:37;92866.72;;;0.35;76.92
37206;BME280;23099;42.636;23.198;2023-02-12T07:52:04;92866.81;;;0.25;75.75
37206;BME280;23099;42.636;23.198;2023-02-12T07:54:31;92873.41;;;0.23;75.82
37206;BME280;23099;42.636;23.198;2023-02-12T07:56:58;92878.13;;;0.21;75.58
37206;BME280;23099;42.636;23.198;2023-02-12T07:59:25;92874.41;;;0.27;74.86
37206;BME280;23099;42.636;23.198;2023-02-12T08:01:52;92878.16;;;0.16;75.88
37206;BME280;23099;42.636;23.198;2023-02-12T08:04:22;92876.53;;;0.25;75.23
37206;BME280;23099;42.636;23.198;2023-02-12T08:06:49;92881.66;;;0.06;75.10
37206;BME280;23099;42.636;23.198;2023-02-12T08:09:19;92879.00;;;0.11;75.66
37206;BME280;23099;42.636;23.198;2023-02-12T08:11:46;92885.31;;;0.10;75.84
37206;BME280;23099;42.636;23.198;2023-02-12T08:14:14;92888.13;;;0.19;75.07
37206;BME280;23099;42.636;23.198;2023-02-12T08:16:41;92882.59;;;0.25;74.84
37206;BME280;23099;42.636;23.198;2023-02-12T08:19:08;92888.03;;;0.34;76.46
37206;BME280;23099;42.636;23.198;2023-02-12T08:21:36;92889.56;;;0.40;75.53
37206;BME280;23099;42.636;23.198;2023-02-12T08:24:02;92881.16;;;0.38;75.68
37206;BME280;23099;42.636;23.198;2023-02-12T08:26:30;92885.81;;;0.46;75.14
37206;BME280;23099;42.636;23.198;2023-02-12T08:28:58;92892.59;;;0.52;75.08
37206;BME280;23099;42.636;23.198;2023-02-12T08:31:26;92895.97;;;0.58;74.49
37206;BME280;23099;42.636;23.198;2023-02-12T08:33:53;92902.78;;;0.59;74.66
37206;BME280;23099;42.636;23.198;2023-02-12T08:36:21;92905.25;;;0.50;74.93
37206;BME280;23099;42.636;23.198;2023-02-12T08:38:49;92903.44;;;0.46;74.68
37206;BME280;23099;42.636;23.198;2023-02-12T08:41:17;92907.88;;;0.50;73.56
37206;BME280;23099;42.636;23.198;2023-02-12T08:43:43;92911.25;;;0.56;74.21
37206;BME280;23099;42.636;23.198;2023-02-12T08:46:11;92913.81;;;0.61;74.38
37206;BME280;23099;42.636;23.198;2023-02-12T08:48:37;92915.69;;;0.60;74.96
37206;BME280;23099;42.636;23.198;2023-02-12T08:51:05;92918.13;;;0.52;74.65
37206;BME280;23099;42.636;23.198;2023-02-12T08:53:32;92922.78;;;0.60;74.13
37206;BME280;23099;42.636;23.198;2023-02-12T08:55:59;92923.28;;;0.62;75.00
37206;BME280;23099;42.636;23.198;2023-02-12T08:58:26;92927.84;;;0.56;75.18
37206;BME280;23099;42.636;23.198;2023-02-12T09:00:52;92932.84;;;0.53;75.16
37206;BME280;23099;42.636;23.198;2023-02-12T09:03:19;92929.88;;;0.59;75.26
37206;BME280;23099;42.636;23.198;2023-02-12T09:06:07;92932.78;;;0.58;74.98
37206;BME280;23099;42.636;23.198;2023-02-12T09:08:35;92929.34;;;0.62;75.22
37206;BME280;23099;42.636;23.198;2023-02-12T09:11:03;92913.13;;;0.50;75.72
37206;BME280;23099;42.636;23.198;2023-02-12T09:13:30;92925.97;;;0.57;76.33
37206;BME280;23099;42.636;23.198;2023-02-12T09:15:59;92933.38;;;0.50;76.27
37206;BME280;23099;42.636;23.198;2023-02-12T09:18:26;92940.19;;;0.56;76.53
37206;BME280;23099;42.636;23.198;2023-02-12T09:20:54;92939.91;;;0.57;76.41
37206;BME280;23099;42.636;23.198;2023-02-12T09:23:22;92956.47;;;0.58;76.40
37206;BME280;23099;42.636;23.198;2023-02-12T09:25:48;92956.00;;;0.51;76.37
37206;BME280;23099;42.636;23.198;2023-02-12T09:28:15;92962.59;;;0.48;76.57
37206;BME280;23099;42.636;23.198;2023-02-12T09:30:42;92968.28;;;0.26;77.63
37206;BME280;23099;42.636;23.198;2023-02-12T09:33:10;92964.09;;;0.20;78.13
37206;BME280;23099;42.636;23.198;2023-02-12T09:35:37;92951.56;;;0.07;79.13
37206;BME280;23099;42.636;23.198;2023-02-12T09:38:05;92952.34;;;0.13;79.54
37206;BME280;23099;42.636;23.198;2023-02-12T09:40:38;92955.94;;;0.22;80.17
37206;BME280;23099;42.636;23.198;2023-02-12T09:43:16;92957.53;;;0.23;79.49
37206;BME280;23099;42.636;23.198;2023-02-12T09:45:49;92962.97;;;0.31;79.39
37206;BME280;23099;42.636;23.198;2023-02-12T09:48:41;92954.00;;;0.38;79.97
37206;BME280;23099;42.636;23.198;2023-02-12T09:51:11;92966.88;;;0.39;78.98
37206;BME280;23099;42.636;23.198;2023-02-12T09:53:40;92964.75;;;0.41;78.69
37206;BME280;23099;42.636;23.198;2023-02-12T09:56:17;92964.19;;;0.44;79.58
37206;BME280;23099;42.636;23.198;2023-02-12T09:58:46;92969.19;;;0.46;77.85
37206;BME280;23099;42.636;23.198;2023-02-12T10:01:16;92958.44;;;0.42;78.20
37206;BME280;23099;42.636;23.198;2023-02-12T10:03:43;92967.84;;;0.48;78.60
37206;BME280;23099;42.636;23.198;2023-02-12T10:06:14;92963.63;;;0.52;79.04
37206;BME280;23099;42.636;23.198;2023-02-12T10:08:59;92955.22;;;0.50;79.21
37206;BME280;23099;42.636;23.198;2023-02-12T10:11:42;92969.91;;;0.56;78.61
37206;BME280;23099;42.636;23.198;2023-02-12T10:14:21;92964.41;;;0.53;79.26
37206;BME280;23099;42.636;23.198;2023-02-12T10:16:58;92968.53;;;0.64;79.10
37206;BME280;23099;42.636;23.198;2023-02-12T10:19:43;92974.03;;;0.67;78.02
37206;BME280;23099;42.636;23.198;2023-02-12T10:22:23;92977.19;;;0.69;79.43
37206;BME280;23099;42.636;23.198;2023-02-12T10:25:14;92967.72;;;0.68;79.14
37206;BME280;23099;42.636;23.198;2023-02-12T10:27:49;92962.84;;;0.86;79.04
37206;BME280;23099;42.636;23.198;2023-02-12T10:30:19;92949.38;;;0.87;79.38
37206;BME280;23099;42.636;23.198;2023-02-12T10:32:49;92953.53;;;0.93;79.00
37206;BME280;23099;42.636;23.198;2023-02-12T10:35:20;92952.63;;;1.08;77.91
37206;BME280;23099;42.636;23.198;2023-02-12T10:37:51;92957.22;;;1.21;77.24
37206;BME280;23099;42.636;23.198;2023-02-12T10:40:23;92959.19;;;1.34;76.68
37206;BME280;23099;42.636;23.198;2023-02-12T10:42:54;92963.63;;;1.39;76.93
37206;BME280;23099;42.636;23.198;2023-02-12T10:45:24;92960.09;;;1.49;76.48
37206;BME280;23099;42.636;23.198;2023-02-12T10:48:00;92958.41;;;1.34;76.12
37206;BME280;23099;42.636;23.198;2023-02-12T10:50:39;92960.38;;;1.23;76.57
37206;BME280;23099;42.636;23.198;2023-02-12T10:53:14;92964.91;;;1.41;76.94
37206;BME280;23099;42.636;23.198;2023-02-12T10:55:43;92959.38;;;1.43;77.42
37206;BME280;23099;42.636;23.198;2023-02-12T10:58:19;92962.38;;;1.79;76.71
37206;BME280;23099;42.636;23.198;2023-02-12T11:00:46;92952.69;;;1.93;74.07
37206;BME280;23099;42.636;23.198;2023-02-12T11:03:19;92946.47;;;2.27;74.41
37206;BME280;23099;42.636;23.198;2023-02-12T11:05:47;92953.38;;;2.41;73.63
37206;BME280;23099;42.636;23.198;2023-02-12T11:08:35;92944.78;;;2.68;72.52
37206;BME280;23099;42.636;23.198;2023-02-12T11:11:06;92946.63;;;3.00;71.16
37206;BME280;23099;42.636;23.198;2023-02-12T11:13:36;92941.25;;;3.05;69.24
37206;BME280;23099;42.636;23.198;2023-02-12T11:16:04;92951.81;;;3.05;69.64
37206;BME280;23099;42.636;23.198;2023-02-12T11:18:31;92954.34;;;2.97;70.41
37206;BME280;23099;42.636;23.198;2023-02-12T11:21:04;92948.28;;;2.96;69.22
37206;BME280;23099;42.636;23.198;2023-02-12T11:23:33;92945.84;;;3.00;69.03
37206;BME280;23099;42.636;23.198;2023-02-12T11:26:04;92945.63;;;2.96;70.25
37206;BME280;23099;42.636;23.198;2023-02-12T11:28:32;92949.31;;;3.14;68.75
37206;BME280;23099;42.636;23.198;2023-02-12T11:31:22;92952.63;;;3.19;69.24
37206;BME280;23099;42.636;23.198;2023-02-12T11:34:06;92950.75;;;3.20;70.01
37206;BME280;23099;42.636;23.198;2023-02-12T11:36:35;92956.34;;;3.32;68.78
37206;BME280;23099;42.636;23.198;2023-02-12T11:39:02;92956.16;;;3.15;69.21
37206;BME280;23099;42.636;23.198;2023-02-12T11:41:34;92957.38;;;3.04;70.31
37206;BME280;23099;42.636;23.198;2023-02-12T11:44:08;92957.28;;;2.95;70.25
37206;BME280;23099;42.636;23.198;2023-02-12T11:46:37;92949.31;;;3.14;70.57
37206;BME280;23099;42.636;23.198;2023-02-12T11:49:06;92954.28;;;3.02;70.77
37206;BME280;23099;42.636;23.198;2023-02-12T11:51:35;92945.88;;;2.81;71.19
37206;BME280;23099;42.636;23.198;2023-02-12T11:54:03;92955.00;;;2.89;71.91
37206;BME280;23099;42.636;23.198;2023-02-12T11:56:41;92948.75;;;2.84;71.86
37206;BME280;23099;42.636;23.198;2023-02-12T11:59:16;92948.13;;;2.74;72.96
37206;BME280;23099;42.636;23.198;2023-02-12T12:01:48;92942.63;;;2.70;72.42
37206;BME280;23099;42.636;23.198;2023-02-12T12:04:22;92954.63;;;2.63;72.49
37206;BME280;23099;42.636;23.198;2023-02-12T12:06:55;92959.03;;;2.67;72.49
37206;BME280;23099;42.636;23.198;2023-02-12T12:09:29;92951.91;;;2.68;71.19
37206;BME280;23099;42.636;23.198;2023-02-12T12:12:07;92953.81;;;2.81;71.93
37206;BME280;23099;42.636;23.198;2023-02-12T12:14:41;92950.50;;;2.89;70.44
37206;BME280;23099;42.636;23.198;2023-02-12T12:17:37;92962.91;;;2.89;71.46
37206;BME280;23099;42.636;23.198;2023-02-12T12:20:27;92967.69;;;2.73;72.02
37206;BME280;23099;42.636;23.198;2023-02-12T12:23:00;92964.06;;;2.82;71.50
37206;BME280;23099;42.636;23.198;2023-02-12T12:25:31;92972.22;;;2.86;70.97
37206;BME280;23099;42.636;23.198;2023-02-12T12:28:07;92955.03;;;2.70;70.69
37206;BME280;23099;42.636;23.198;2023-02-12T12:31:00;92973.81;;;2.68;71.08
37206;BME280;23099;42.636;23.198;2023-02-12T12:33:38;92970.81;;;2.56;72.44
37206;BME280;23099;42.636;23.198;2023-02-12T12:39:15;92969.31;;;2.69;74.27
37206;BME280;23099;42.636;23.198;2023-02-12T12:41:55;92967.22;;;2.84;72.29
37206;BME280;23099;42.636;23.198;2023-02-12T12:44:37;92978.00;;;2.88;70.71
37206;BME280;23099;42.636;23.198;2023-02-12T12:47:16;92978.13;;;2.78;71.31
37206;BME280;23099;42.636;23.198;2023-02-12T12:49:59;92983.00;;;2.71;71.02
37206;BME280;23099;42.636;23.198;2023-02-12T12:52:44;92977.97;;;2.56;71.92
37206;BME280;23099;42.636;23.198;2023-02-12T12:55:31;92987.09;;;2.44;72.20
37206;BME280;23099;42.636;23.198;2023-02-12T12:58:09;92996.59;;;2.03;74.19
37206;BME280;23099;42.636;23.198;2023-02-12T13:00:53;93000.88;;;1.99;75.48
37206;BME280;23099;42.636;23.198;2023-02-12T13:06:40;93003.16;;;2.05;74.50
37206;BME280;23099;42.636;23.198;2023-02-12T13:09:34;93004.09;;;1.96;76.39
37206;BME280;23099;42.636;23.198;2023-02-12T13:12:27;93006.22;;;1.94;76.04
37206;BME280;23099;42.636;23.198;2023-02-12T13:15:02;93020.22;;;1.89;76.07
37206;BME280;23099;42.636;23.198;2023-02-12T13:17:35;93015.06;;;1.79;77.27
37206;BME280;23099;42.636;23.198;2023-02-12T13:20:10;93014.69;;;1.91;76.03
37206;BME280;23099;42.636;23.198;2023-02-12T13:22:47;93005.88;;;2.00;76.69